sensor_id;sensor_type;location;lat;lon;timestamp;P1;durP1;ratioP1;P2;durP2;ratioP2
82248;SDS011;71851;49.092;18.918;2024-01-15T00:02:58;14.63;;;6.13;;
82248;SDS011;71851;49.092;18.918;2024-01-15T00:05:59;13.63;;;6.70;;
82248;SDS011;71851;49.092;18.918;2024-01-15T00:08:59;11.57;;;5.38;;
82248;SDS011;71851;49.092;18.918;2024-01-15T00:12:00;17.13;;;8.23;;
82248;SDS011;71851;49.092;18.918;2024-01-15T00:15:00;18.45;;;7.95;;
82248;SDS011;71851;49.092;18.918;2024-01-15T00:18:00;15.33;;;7.00;;
82248;SDS011;71851;49.092;18.918;2024-01-15T00:21:01;16.17;;;7.20;;
82248;SDS011;71851;49.092;18.918;2024-01-15T00:24:01;13.77;;;6.47;;
82248;SDS011;71851;49.092;18.918;2024-01-15T00:27:01;15.40;;;7.20;;
82248;SDS011;71851;49.092;18.918;2024-01-15T00:30:01;14.17;;;7.63;;
82248;SDS011;71851;49.092;18.918;2024-01-15T00:33:02;13.80;;;6.57;;
82248;SDS011;71851;49.092;18.918;2024-01-15T00:36:02;14.33;;;7.30;;
82248;SDS011;71851;49.092;18.918;2024-01-15T00:39:03;15.57;;;7.05;;
82248;SDS011;71851;49.092;18.918;2024-01-15T00:42:05;14.23;;;7.03;;
82248;SDS011;71851;49.092;18.918;2024-01-15T00:45:05;14.77;;;6.63;;
82248;SDS011;71851;49.092;18.918;2024-01-15T00:48:07;13.15;;;6.90;;
82248;SDS011;71851;49.092;18.918;2024-01-15T00:51:08;12.17;;;4.90;;
82248;SDS011;71851;49.092;18.918;2024-01-15T00:54:08;12.60;;;6.27;;
82248;SDS011;71851;49.092;18.918;2024-01-15T00:57:08;11.93;;;6.03;;
82248;SDS011;71851;49.092;18.918;2024-01-15T01:00:09;13.33;;;6.97;;
82248;SDS011;71851;49.092;18.918;2024-01-15T01:03:09;13.15;;;7.60;;
82248;SDS011;71851;49.092;18.918;2024-01-15T01:06:10;14.18;;;7.15;;
82248;SDS011;71851;49.092;18.918;2024-01-15T01:09:10;15.10;;;7.37;;
82248;SDS011;71851;49.092;18.918;2024-01-15T01:12:11;15.90;;;6.87;;
82248;SDS011;71851;49.092;18.918;2024-01-15T01:15:12;14.48;;;7.22;;
82248;SDS011;71851;49.092;18.918;2024-01-15T01:18:12;15.47;;;7.20;;
82248;SDS011;71851;49.092;18.918;2024-01-15T01:21:12;13.90;;;6.90;;
82248;SDS011;71851;49.092;18.918;2024-01-15T01:24:13;12.87;;;6.50;;
82248;SDS011;71851;49.092;18.918;2024-01-15T01:27:13;14.07;;;7.07;;
82248;SDS011;71851;49.092;18.918;2024-01-15T01:30:13;17.35;;;6.90;;
82248;SDS011;71851;49.092;18.918;2024-01-15T01:33:14;13.73;;;6.93;;
82248;SDS011;71851;49.092;18.918;2024-01-15T01:36:14;11.00;;;5.82;;
82248;SDS011;71851;49.092;18.918;2024-01-15T01:39:14;13.33;;;6.20;;
82248;SDS011;71851;49.092;18.918;2024-01-15T01:42:14;13.40;;;6.60;;
82248;SDS011;71851;49.092;18.918;2024-01-15T01:45:15;12.87;;;6.80;;
82248;SDS011;71851;49.092;18.918;2024-01-15T01:48:15;11.30;;;6.13;;
82248;SDS011;71851;49.092;18.918;2024-01-15T01:51:24;12.53;;;7.17;;
82248;SDS011;71851;49.092;18.918;2024-01-15T01:54:26;14.13;;;6.85;;
82248;SDS011;71851;49.092;18.918;2024-01-15T01:57:27;12.55;;;6.90;;
82248;SDS011;71851;49.092;18.918;2024-01-15T02:00:28;14.23;;;6.30;;
82248;SDS011;71851;49.092;18.918;2024-01-15T02:03:29;16.08;;;7.38;;
82248;SDS011;71851;49.092;18.918;2024-01-15T02:06:30;13.35;;;6.70;;
82248;SDS011;71851;49.092;18.918;2024-01-15T02:09:30;11.37;;;5.93;;
82248;SDS011;71851;49.092;18.918;2024-01-15T02:12:32;10.68;;;6.05;;
82248;SDS011;71851;49.092;18.918;2024-01-15T02:15:32;11.52;;;6.60;;
82248;SDS011;71851;49.092;18.918;2024-01-15T02:18:39;14.80;;;6.37;;
82248;SDS011;71851;49.092;18.918;2024-01-15T02:21:40;13.43;;;7.22;;
82248;SDS011;71851;49.092;18.918;2024-01-15T02:24:40;10.87;;;5.93;;
82248;SDS011;71851;49.092;18.918;2024-01-15T02:27:40;11.73;;;6.43;;
82248;SDS011;71851;49.092;18.918;2024-01-15T02:30:41;11.30;;;6.28;;
82248;SDS011;71851;49.092;18.918;2024-01-15T02:33:42;12.38;;;6.03;;
82248;SDS011;71851;49.092;18.918;2024-01-15T02:36:42;12.05;;;6.55;;
82248;SDS011;71851;49.092;18.918;2024-01-15T02:39:43;11.82;;;6.80;;
82248;SDS011;71851;49.092;18.918;2024-01-15T02:42:43;12.00;;;6.93;;
82248;SDS011;71851;49.092;18.918;2024-01-15T02:45:43;12.03;;;6.50;;
82248;SDS011;71851;49.092;18.918;2024-01-15T02:48:43;13.97;;;7.00;;
82248;SDS011;71851;49.092;18.918;2024-01-15T02:51:44;13.80;;;6.33;;
82248;SDS011;71851;49.092;18.918;2024-01-15T02:54:45;13.05;;;6.50;;
82248;SDS011;71851;49.092;18.918;2024-01-15T02:57:45;11.07;;;5.90;;
82248;SDS011;71851;49.092;18.918;2024-01-15T03:00:45;13.10;;;7.23;;
82248;SDS011;71851;49.092;18.918;2024-01-15T03:03:46;12.75;;;6.35;;
82248;SDS011;71851;49.092;18.918;2024-01-15T03:06:46;14.23;;;7.43;;
82248;SDS011;71851;49.092;18.918;2024-01-15T03:09:47;12.98;;;7.57;;
82248;SDS011;71851;49.092;18.918;2024-01-15T03:12:47;13.07;;;6.63;;
82248;SDS011;71851;49.092;18.918;2024-01-15T03:15:47;10.87;;;7.27;;
82248;SDS011;71851;49.092;18.918;2024-01-15T03:18:47;13.77;;;7.17;;
82248;SDS011;71851;49.092;18.918;2024-01-15T03:21:48;14.23;;;7.27;;
82248;SDS011;71851;49.092;18.918;2024-01-15T03:24:48;13.05;;;6.88;;
82248;SDS011;71851;49.092;18.918;2024-01-15T03:27:48;14.93;;;7.50;;
82248;SDS011;71851;49.092;18.918;2024-01-15T03:30:49;14.30;;;7.43;;
82248;SDS011;71851;49.092;18.918;2024-01-15T03:33:49;14.97;;;7.33;;
82248;SDS011;71851;49.092;18.918;2024-01-15T03:36:49;13.70;;;7.20;;
82248;SDS011;71851;49.092;18.918;2024-01-15T03:39:49;14.50;;;6.80;;
82248;SDS011;71851;49.092;18.918;2024-01-15T03:42:51;13.40;;;7.40;;
82248;SDS011;71851;49.092;18.918;2024-01-15T03:45:51;15.13;;;7.55;;
82248;SDS011;71851;49.092;18.918;2024-01-15T03:48:51;14.43;;;6.10;;
82248;SDS011;71851;49.092;18.918;2024-01-15T03:51:52;12.77;;;6.40;;
82248;SDS011;71851;49.092;18.918;2024-01-15T03:54:52;11.93;;;6.70;;
82248;SDS011;71851;49.092;18.918;2024-01-15T03:57:52;14.63;;;7.28;;
82248;SDS011;71851;49.092;18.918;2024-01-15T04:00:52;12.10;;;6.43;;
82248;SDS011;71851;49.092;18.918;2024-01-15T04:03:53;15.20;;;6.27;;
82248;SDS011;71851;49.092;18.918;2024-01-15T04:06:53;15.13;;;7.03;;
82248;SDS011;71851;49.092;18.918;2024-01-15T04:09:53;12.50;;;6.37;;
82248;SDS011;71851;49.092;18.918;2024-01-15T04:12:54;17.90;;;7.50;;
82248;SDS011;71851;49.092;18.918;2024-01-15T04:15:54;12.93;;;6.63;;
82248;SDS011;71851;49.092;18.918;2024-01-15T04:18:54;13.57;;;6.83;;
82248;SDS011;71851;49.092;18.918;2024-01-15T04:21:54;12.73;;;7.20;;
82248;SDS011;71851;49.092;18.918;2024-01-15T04:24:55;11.10;;;5.83;;
82248;SDS011;71851;49.092;18.918;2024-01-15T04:27:55;11.93;;;5.90;;
82248;SDS011;71851;49.092;18.918;2024-01-15T04:30:55;11.83;;;5.77;;
82248;SDS011;71851;49.092;18.918;2024-01-15T04:33:55;12.37;;;6.67;;
82248;SDS011;71851;49.092;18.918;2024-01-15T04:36:56;11.03;;;6.50;;
82248;SDS011;71851;49.092;18.918;2024-01-15T04:39:56;11.07;;;6.30;;
82248;SDS011;71851;49.092;18.918;2024-01-15T04:42:57;11.15;;;6.18;;
82248;SDS011;71851;49.092;18.918;2024-01-15T04:45:57;13.23;;;6.37;;
82248;SDS011;71851;49.092;18.918;2024-01-15T04:48:58;14.23;;;7.25;;
82248;SDS011;71851;49.092;18.918;2024-01-15T04:51:58;13.10;;;6.40;;
82248;SDS011;71851;49.092;18.918;2024-01-15T04:54:58;15.75;;;7.50;;
82248;SDS011;71851;49.092;18.918;2024-01-15T04:57:59;14.60;;;7.50;;
82248;SDS011;71851;49.092;18.918;2024-01-15T05:00:59;13.93;;;7.43;;
82248;SDS011;71851;49.092;18.918;2024-01-15T05:03:59;12.57;;;6.53;;
82248;SDS011;71851;49.092;18.918;2024-01-15T05:07:00;13.13;;;6.85;;
82248;SDS011;71851;49.092;18.918;2024-01-15T05:10:01;20.23;;;9.03;;
82248;SDS011;71851;49.092;18.918;2024-01-15T05:13:01;15.90;;;7.25;;
82248;SDS011;71851;49.092;18.918;2024-01-15T05:16:01;17.97;;;8.63;;
82248;SDS011;71851;49.092;18.918;2024-01-15T05:19:02;15.47;;;7.37;;
82248;SDS011;71851;49.092;18.918;2024-01-15T05:22:02;13.40;;;7.27;;
82248;SDS011;71851;49.092;18.918;2024-01-15T05:25:02;12.00;;;6.53;;
82248;SDS011;71851;49.092;18.918;2024-01-15T05:28:04;13.85;;;6.72;;
82248;SDS011;71851;49.092;18.918;2024-01-15T05:31:04;11.23;;;6.45;;
82248;SDS011;71851;49.092;18.918;2024-01-15T05:34:05;14.83;;;6.80;;
82248;SDS011;71851;49.092;18.918;2024-01-15T05:37:05;11.68;;;7.68;;
82248;SDS011;71851;49.092;18.918;2024-01-15T05:40:05;15.83;;;7.60;;
82248;SDS011;71851;49.092;18.918;2024-01-15T05:43:06;16.73;;;7.45;;
82248;SDS011;71851;49.092;18.918;2024-01-15T05:46:06;15.47;;;7.70;;
82248;SDS011;71851;49.092;18.918;2024-01-15T05:49:06;17.80;;;8.67;;
82248;SDS011;71851;49.092;18.918;2024-01-15T05:52:07;13.57;;;7.93;;
82248;SDS011;71851;49.092;18.918;2024-01-15T05:55:07;17.70;;;9.10;;
82248;SDS011;71851;49.092;18.918;2024-01-15T05:58:07;22.85;;;9.68;;
82248;SDS011;71851;49.092;18.918;2024-01-15T06:01:08;21.57;;;10.67;;
82248;SDS011;71851;49.092;18.918;2024-01-15T06:04:08;24.30;;;10.00;;
82248;SDS011;71851;49.092;18.918;2024-01-15T06:07:08;20.27;;;9.53;;
82248;SDS011;71851;49.092;18.918;2024-01-15T06:10:09;20.17;;;9.80;;
82248;SDS011;71851;49.092;18.918;2024-01-15T06:13:09;17.85;;;9.35;;
82248;SDS011;71851;49.092;18.918;2024-01-15T06:16:15;18.60;;;9.53;;
82248;SDS011;71851;49.092;18.918;2024-01-15T06:19:20;17.45;;;9.00;;
82248;SDS011;71851;49.092;18.918;2024-01-15T06:22:21;18.15;;;9.20;;
82248;SDS011;71851;49.092;18.918;2024-01-15T06:25:21;20.33;;;10.57;;
82248;SDS011;71851;49.092;18.918;2024-01-15T06:28:22;17.00;;;9.02;;
82248;SDS011;71851;49.092;18.918;2024-01-15T06:31:23;16.43;;;9.33;;
82248;SDS011;71851;49.092;18.918;2024-01-15T06:34:23;19.43;;;9.10;;
82248;SDS011;71851;49.092;18.918;2024-01-15T06:37:23;19.63;;;8.77;;
82248;SDS011;71851;49.092;18.918;2024-01-15T06:40:23;16.10;;;8.67;;
82248;SDS011;71851;49.092;18.918;2024-01-15T06:43:24;14.37;;;7.83;;
82248;SDS011;71851;49.092;18.918;2024-01-15T06:46:24;20.27;;;9.50;;
82248;SDS011;71851;49.092;18.918;2024-01-15T06:49:24;15.10;;;8.10;;
82248;SDS011;71851;49.092;18.918;2024-01-15T06:52:25;12.50;;;6.67;;
82248;SDS011;71851;49.092;18.918;2024-01-15T06:55:25;14.97;;;7.73;;
82248;SDS011;71851;49.092;18.918;2024-01-15T06:58:25;11.88;;;7.50;;
82248;SDS011;71851;49.092;18.918;2024-01-15T07:01:26;15.30;;;8.05;;
82248;SDS011;71851;49.092;18.918;2024-01-15T07:04:27;16.10;;;8.23;;
82248;SDS011;71851;49.092;18.918;2024-01-15T07:07:27;22.08;;;10.60;;
82248;SDS011;71851;49.092;18.918;2024-01-15T07:10:29;19.45;;;10.48;;
82248;SDS011;71851;49.092;18.918;2024-01-15T07:13:30;20.80;;;10.57;;
82248;SDS011;71851;49.092;18.918;2024-01-15T07:16:30;26.58;;;12.82;;
82248;SDS011;71851;49.092;18.918;2024-01-15T07:19:30;23.50;;;13.03;;
82248;SDS011;71851;49.092;18.918;2024-01-15T07:22:31;26.67;;;13.87;;
82248;SDS011;71851;49.092;18.918;2024-01-15T07:25:31;28.73;;;14.43;;
82248;SDS011;71851;49.092;18.918;2024-01-15T07:28:31;25.53;;;13.43;;
82248;SDS011;71851;49.092;18.918;2024-01-15T07:31:31;27.58;;;14.10;;
82248;SDS011;71851;49.092;18.918;2024-01-15T07:34:32;26.02;;;13.25;;
82248;SDS011;71851;49.092;18.918;2024-01-15T07:37:33;28.00;;;14.40;;
82248;SDS011;71851;49.092;18.918;2024-01-15T07:40:33;24.63;;;11.48;;
82248;SDS011;71851;49.092;18.918;2024-01-15T07:43:33;23.57;;;11.53;;
82248;SDS011;71851;49.092;18.918;2024-01-15T07:46:35;26.10;;;13.75;;
82248;SDS011;71851;49.092;18.918;2024-01-15T07:49:35;22.10;;;11.13;;
82248;SDS011;71851;49.092;18.918;2024-01-15T07:52:35;20.57;;;11.37;;
82248;SDS011;71851;49.092;18.918;2024-01-15T07:55:35;20.38;;;9.65;;
82248;SDS011;71851;49.092;18.918;2024-01-15T07:58:36;27.03;;;14.33;;
82248;SDS011;71851;49.092;18.918;2024-01-15T08:01:36;27.30;;;13.27;;
82248;SDS011;71851;49.092;18.918;2024-01-15T08:04:37;21.90;;;12.20;;
82248;SDS011;71851;49.092;18.918;2024-01-15T08:07:58;18.83;;;10.05;;
82248;SDS011;71851;49.092;18.918;2024-01-15T08:10:58;24.42;;;11.82;;
82248;SDS011;71851;49.092;18.918;2024-01-15T08:13:58;31.53;;;13.53;;
82248;SDS011;71851;49.092;18.918;2024-01-15T08:16:58;27.60;;;13.57;;
82248;SDS011;71851;49.092;18.918;2024-01-15T08:19:59;30.43;;;15.60;;
82248;SDS011;71851;49.092;18.918;2024-01-15T08:23:00;33.58;;;16.17;;
82248;SDS011;71851;49.092;18.918;2024-01-15T08:26:00;29.50;;;15.17;;
82248;SDS011;71851;49.092;18.918;2024-01-15T08:29:01;24.03;;;13.37;;
82248;SDS011;71851;49.092;18.918;2024-01-15T08:32:01;14.70;;;8.27;;
82248;SDS011;71851;49.092;18.918;2024-01-15T08:35:01;20.70;;;10.23;;
82248;SDS011;71851;49.092;18.918;2024-01-15T08:38:04;23.52;;;11.93;;
82248;SDS011;71851;49.092;18.918;2024-01-15T08:41:05;28.50;;;14.57;;
82248;SDS011;71851;49.092;18.918;2024-01-15T08:44:05;25.40;;;11.82;;
82248;SDS011;71851;49.092;18.918;2024-01-15T08:47:05;29.87;;;13.63;;
82248;SDS011;71851;49.092;18.918;2024-01-15T08:50:06;26.13;;;13.37;;
82248;SDS011;71851;49.092;18.918;2024-01-15T08:53:09;31.13;;;14.63;;
82248;SDS011;71851;49.092;18.918;2024-01-15T08:56:10;28.93;;;14.53;;
82248;SDS011;71851;49.092;18.918;2024-01-15T08:59:10;31.38;;;15.52;;
82248;SDS011;71851;49.092;18.918;2024-01-15T09:02:12;29.90;;;14.88;;
82248;SDS011;71851;49.092;18.918;2024-01-15T09:05:12;27.13;;;14.25;;
82248;SDS011;71851;49.092;18.918;2024-01-15T09:08:12;29.23;;;13.87;;
82248;SDS011;71851;49.092;18.918;2024-01-15T09:11:13;35.80;;;16.03;;
82248;SDS011;71851;49.092;18.918;2024-01-15T09:14:14;27.75;;;12.82;;
82248;SDS011;71851;49.092;18.918;2024-01-15T09:17:14;23.92;;;12.15;;
82248;SDS011;71851;49.092;18.918;2024-01-15T09:20:14;28.97;;;13.60;;
82248;SDS011;71851;49.092;18.918;2024-01-15T09:23:15;24.50;;;11.70;;
82248;SDS011;71851;49.092;18.918;2024-01-15T09:26:15;24.88;;;12.50;;
82248;SDS011;71851;49.092;18.918;2024-01-15T09:29:18;24.42;;;13.25;;
82248;SDS011;71851;49.092;18.918;2024-01-15T09:32:19;23.47;;;12.03;;
82248;SDS011;71851;49.092;18.918;2024-01-15T09:35:19;19.83;;;10.70;;
82248;SDS011;71851;49.092;18.918;2024-01-15T09:38:19;20.10;;;11.33;;
82248;SDS011;71851;49.092;18.918;2024-01-15T09:41:20;19.40;;;10.32;;
82248;SDS011;71851;49.092;18.918;2024-01-15T09:44:20;31.10;;;14.98;;
82248;SDS011;71851;49.092;18.918;2024-01-15T09:47:21;27.80;;;13.63;;
82248;SDS011;71851;49.092;18.918;2024-01-15T09:50:22;21.48;;;10.98;;
82248;SDS011;71851;49.092;18.918;2024-01-15T09:53:22;16.20;;;9.37;;
82248;SDS011;71851;49.092;18.918;2024-01-15T09:56:24;21.85;;;11.38;;
82248;SDS011;71851;49.092;18.918;2024-01-15T09:59:24;25.35;;;11.88;;
82248;SDS011;71851;49.092;18.918;2024-01-15T10:02:25;26.95;;;14.52;;
82248;SDS011;71851;49.092;18.918;2024-01-15T10:05:26;20.17;;;10.83;;
82248;SDS011;71851;49.092;18.918;2024-01-15T10:08:28;14.10;;;8.25;;
82248;SDS011;71851;49.092;18.918;2024-01-15T10:11:28;13.30;;;6.80;;
82248;SDS011;71851;49.092;18.918;2024-01-15T10:14:28;13.52;;;6.90;;
82248;SDS011;71851;49.092;18.918;2024-01-15T10:17:29;17.52;;;8.57;;
82248;SDS011;71851;49.092;18.918;2024-01-15T10:20:34;14.40;;;7.18;;
82248;SDS011;71851;49.092;18.918;2024-01-15T10:23:34;15.07;;;7.82;;
82248;SDS011;71851;49.092;18.918;2024-01-15T10:26:36;14.00;;;6.40;;
82248;SDS011;71851;49.092;18.918;2024-01-15T10:29:36;13.00;;;7.30;;
82248;SDS011;71851;49.092;18.918;2024-01-15T10:32:37;13.15;;;6.43;;
82248;SDS011;71851;49.092;18.918;2024-01-15T10:35:37;12.30;;;6.30;;
82248;SDS011;71851;49.092;18.918;2024-01-15T10:38:38;14.02;;;7.18;;
82248;SDS011;71851;49.092;18.918;2024-01-15T10:41:38;14.17;;;7.00;;
82248;SDS011;71851;49.092;18.918;2024-01-15T10:44:40;11.98;;;7.05;;
82248;SDS011;71851;49.092;18.918;2024-01-15T10:47:41;14.20;;;6.82;;
82248;SDS011;71851;49.092;18.918;2024-01-15T10:50:42;12.30;;;6.95;;
82248;SDS011;71851;49.092;18.918;2024-01-15T10:53:42;13.30;;;7.95;;
82248;SDS011;71851;49.092;18.918;2024-01-15T10:56:44;13.15;;;6.50;;
82248;SDS011;71851;49.092;18.918;2024-01-15T10:59:45;13.40;;;7.30;;
82248;SDS011;71851;49.092;18.918;2024-01-15T11:02:45;11.00;;;5.88;;
82248;SDS011;71851;49.092;18.918;2024-01-15T11:05:46;10.02;;;5.18;;
82248;SDS011;71851;49.092;18.918;2024-01-15T11:08:50;12.90;;;7.43;;
82248;SDS011;71851;49.092;18.918;2024-01-15T11:12:13;12.20;;;7.38;;
82248;SDS011;71851;49.092;18.918;2024-01-15T11:15:15;15.85;;;8.52;;
82248;SDS011;71851;49.092;18.918;2024-01-15T11:18:19;19.17;;;10.10;;
82248;SDS011;71851;49.092;18.918;2024-01-15T11:21:22;14.65;;;8.38;;
82248;SDS011;71851;49.092;18.918;2024-01-15T11:24:33;12.80;;;6.63;;
82248;SDS011;71851;49.092;18.918;2024-01-15T11:27:39;13.07;;;7.13;;
82248;SDS011;71851;49.092;18.918;2024-01-15T11:30:40;12.32;;;7.00;;
82248;SDS011;71851;49.092;18.918;2024-01-15T11:33:47;10.77;;;6.23;;
82248;SDS011;71851;49.092;18.918;2024-01-15T11:39:54;10.85;;;5.65;;
82248;SDS011;71851;49.092;18.918;2024-01-15T11:42:55;11.75;;;6.25;;
82248;SDS011;71851;49.092;18.918;2024-01-15T11:45:56;13.10;;;6.88;;
82248;SDS011;71851;49.092;18.918;2024-01-15T11:48:57;11.83;;;5.40;;
82248;SDS011;71851;49.092;18.918;2024-01-15T11:51:57;9.90;;;5.57;;
82248;SDS011;71851;49.092;18.918;2024-01-15T11:58:08;11.10;;;5.35;;
82248;SDS011;71851;49.092;18.918;2024-01-15T12:01:12;8.73;;;4.95;;
82248;SDS011;71851;49.092;18.918;2024-01-15T12:04:12;9.00;;;4.70;;
82248;SDS011;71851;49.092;18.918;2024-01-15T12:07:13;8.70;;;4.75;;
82248;SDS011;71851;49.092;18.918;2024-01-15T12:10:14;8.40;;;5.03;;
82248;SDS011;71851;49.092;18.918;2024-01-15T12:13:15;7.78;;;4.47;;
82248;SDS011;71851;49.092;18.918;2024-01-15T12:16:17;9.38;;;4.53;;
82248;SDS011;71851;49.092;18.918;2024-01-15T12:19:18;7.75;;;4.82;;
82248;SDS011;71851;49.092;18.918;2024-01-15T12:22:18;9.07;;;5.30;;
82248;SDS011;71851;49.092;18.918;2024-01-15T12:25:19;9.80;;;5.20;;
82248;SDS011;71851;49.092;18.918;2024-01-15T12:28:20;8.55;;;5.45;;
82248;SDS011;71851;49.092;18.918;2024-01-15T12:31:20;9.83;;;4.67;;
82248;SDS011;71851;49.092;18.918;2024-01-15T12:34:21;8.23;;;5.07;;
82248;SDS011;71851;49.092;18.918;2024-01-15T12:37:21;6.70;;;4.32;;
82248;SDS011;71851;49.092;18.918;2024-01-15T12:40:22;8.00;;;4.53;;
82248;SDS011;71851;49.092;18.918;2024-01-15T12:43:23;9.88;;;5.93;;
82248;SDS011;71851;49.092;18.918;2024-01-15T12:46:23;9.25;;;5.10;;
82248;SDS011;71851;49.092;18.918;2024-01-15T12:49:23;8.63;;;4.40;;
82248;SDS011;71851;49.092;18.918;2024-01-15T12:52:24;6.93;;;4.07;;
82248;SDS011;71851;49.092;18.918;2024-01-15T12:55:26;7.05;;;4.45;;
82248;SDS011;71851;49.092;18.918;2024-01-15T12:58:26;9.02;;;4.38;;
82248;SDS011;71851;49.092;18.918;2024-01-15T13:01:26;8.70;;;4.73;;
82248;SDS011;71851;49.092;18.918;2024-01-15T13:04:27;8.45;;;5.50;;
82248;SDS011;71851;49.092;18.918;2024-01-15T13:07:27;11.03;;;6.03;;
82248;SDS011;71851;49.092;18.918;2024-01-15T13:10:27;10.70;;;7.13;;
82248;SDS011;71851;49.092;18.918;2024-01-15T13:13:30;10.63;;;5.65;;
82248;SDS011;71851;49.092;18.918;2024-01-15T13:16:31;9.93;;;5.53;;
82248;SDS011;71851;49.092;18.918;2024-01-15T13:19:31;8.97;;;5.13;;
82248;SDS011;71851;49.092;18.918;2024-01-15T13:22:32;6.68;;;4.15;;
82248;SDS011;71851;49.092;18.918;2024-01-15T13:25:32;7.38;;;4.18;;
82248;SDS011;71851;49.092;18.918;2024-01-15T13:28:35;7.13;;;5.10;;
82248;SDS011;71851;49.092;18.918;2024-01-15T13:31:35;9.33;;;4.83;;
82248;SDS011;71851;49.092;18.918;2024-01-15T13:34:36;8.57;;;4.77;;
82248;SDS011;71851;49.092;18.918;2024-01-15T13:37:36;7.17;;;4.37;;
82248;SDS011;71851;49.092;18.918;2024-01-15T13:40:38;7.90;;;4.82;;
82248;SDS011;71851;49.092;18.918;2024-01-15T13:43:38;6.73;;;4.23;;
82248;SDS011;71851;49.092;18.918;2024-01-15T13:46:38;6.97;;;4.40;;
82248;SDS011;71851;49.092;18.918;2024-01-15T13:49:38;8.10;;;4.20;;
82248;SDS011;71851;49.092;18.918;2024-01-15T13:52:40;7.32;;;3.85;;
82248;SDS011;71851;49.092;18.918;2024-01-15T13:55:40;5.82;;;3.78;;
82248;SDS011;71851;49.092;18.918;2024-01-15T13:58:40;9.10;;;4.53;;
82248;SDS011;71851;49.092;18.918;2024-01-15T14:01:42;5.93;;;4.23;;
82248;SDS011;71851;49.092;18.918;2024-01-15T14:04:42;7.47;;;4.75;;
82248;SDS011;71851;49.092;18.918;2024-01-15T14:07:42;7.73;;;4.10;;
82248;SDS011;71851;49.092;18.918;2024-01-15T14:10:43;10.27;;;4.57;;
82248;SDS011;71851;49.092;18.918;2024-01-15T14:13:43;7.27;;;4.03;;
82248;SDS011;71851;49.092;18.918;2024-01-15T14:16:43;6.27;;;3.80;;
82248;SDS011;71851;49.092;18.918;2024-01-15T14:19:44;9.80;;;4.30;;
82248;SDS011;71851;49.092;18.918;2024-01-15T14:22:44;7.47;;;3.90;;
82248;SDS011;71851;49.092;18.918;2024-01-15T14:25:45;6.22;;;3.60;;
82248;SDS011;71851;49.092;18.918;2024-01-15T14:28:45;6.20;;;3.73;;
82248;SDS011;71851;49.092;18.918;2024-01-15T14:31:46;5.25;;;3.55;;
82248;SDS011;71851;49.092;18.918;2024-01-15T14:34:46;6.27;;;3.53;;
82248;SDS011;71851;49.092;18.918;2024-01-15T14:37:47;6.07;;;3.08;;
82248;SDS011;71851;49.092;18.918;2024-01-15T14:40:48;8.65;;;4.35;;
82248;SDS011;71851;49.092;18.918;2024-01-15T14:43:49;8.27;;;4.22;;
82248;SDS011;71851;49.092;18.918;2024-01-15T14:46:49;7.33;;;4.47;;
82248;SDS011;71851;49.092;18.918;2024-01-15T14:49:50;5.30;;;3.10;;
82248;SDS011;71851;49.092;18.918;2024-01-15T14:52:50;4.90;;;2.50;;
82248;SDS011;71851;49.092;18.918;2024-01-15T14:55:50;6.80;;;4.47;;
82248;SDS011;71851;49.092;18.918;2024-01-15T14:58:51;6.18;;;2.80;;
82248;SDS011;71851;49.092;18.918;2024-01-15T15:01:51;6.77;;;3.90;;
82248;SDS011;71851;49.092;18.918;2024-01-15T15:04:51;7.25;;;3.40;;
82248;SDS011;71851;49.092;18.918;2024-01-15T15:07:52;3.90;;;2.23;;
82248;SDS011;71851;49.092;18.918;2024-01-15T15:10:52;8.63;;;3.63;;
82248;SDS011;71851;49.092;18.918;2024-01-15T15:13:52;6.95;;;3.60;;
82248;SDS011;71851;49.092;18.918;2024-01-15T15:16:53;7.00;;;4.03;;
82248;SDS011;71851;49.092;18.918;2024-01-15T15:19:53;5.97;;;3.03;;
82248;SDS011;71851;49.092;18.918;2024-01-15T15:22:53;7.63;;;3.27;;
82248;SDS011;71851;49.092;18.918;2024-01-15T15:25:55;6.20;;;3.45;;
82248;SDS011;71851;49.092;18.918;2024-01-15T15:28:56;4.40;;;3.10;;
82248;SDS011;71851;49.092;18.918;2024-01-15T15:31:56;5.23;;;3.50;;
82248;SDS011;71851;49.092;18.918;2024-01-15T15:34:56;7.23;;;3.50;;
82248;SDS011;71851;49.092;18.918;2024-01-15T15:37:57;7.23;;;3.50;;
82248;SDS011;71851;49.092;18.918;2024-01-15T15:40:57;7.13;;;3.40;;
82248;SDS011;71851;49.092;18.918;2024-01-15T15:43:58;6.70;;;3.05;;
82248;SDS011;71851;49.092;18.918;2024-01-15T15:47:01;5.40;;;3.20;;
82248;SDS011;71851;49.092;18.918;2024-01-15T15:50:04;7.07;;;3.95;;
82248;SDS011;71851;49.092;18.918;2024-01-15T15:53:04;8.73;;;3.95;;
82248;SDS011;71851;49.092;18.918;2024-01-15T15:56:05;6.00;;;3.38;;
82248;SDS011;71851;49.092;18.918;2024-01-15T15:59:06;9.05;;;4.05;;
82248;SDS011;71851;49.092;18.918;2024-01-15T16:02:09;5.57;;;2.92;;
82248;SDS011;71851;49.092;18.918;2024-01-15T16:05:09;5.23;;;2.90;;
82248;SDS011;71851;49.092;18.918;2024-01-15T16:08:09;5.65;;;3.25;;
82248;SDS011;71851;49.092;18.918;2024-01-15T16:11:16;4.80;;;2.45;;
82248;SDS011;71851;49.092;18.918;2024-01-15T16:14:16;4.10;;;2.78;;
82248;SDS011;71851;49.092;18.918;2024-01-15T16:17:18;6.63;;;3.03;;
82248;SDS011;71851;49.092;18.918;2024-01-15T16:20:18;8.07;;;3.80;;
82248;SDS011;71851;49.092;18.918;2024-01-15T16:23:18;6.60;;;4.00;;
82248;SDS011;71851;49.092;18.918;2024-01-15T16:26:19;2.70;;;2.30;;
82248;SDS011;71851;49.092;18.918;2024-01-15T16:29:19;5.32;;;2.72;;
82248;SDS011;71851;49.092;18.918;2024-01-15T16:32:20;8.57;;;3.97;;
82248;SDS011;71851;49.092;18.918;2024-01-15T16:35:21;8.60;;;3.95;;
82248;SDS011;71851;49.092;18.918;2024-01-15T16:38:21;5.63;;;3.60;;
82248;SDS011;71851;49.092;18.918;2024-01-15T16:41:21;7.07;;;3.30;;
82248;SDS011;71851;49.092;18.918;2024-01-15T16:44:22;6.53;;;3.35;;
82248;SDS011;71851;49.092;18.918;2024-01-15T16:47:22;7.73;;;4.00;;
82248;SDS011;71851;49.092;18.918;2024-01-15T16:50:22;10.80;;;5.30;;
82248;SDS011;71851;49.092;18.918;2024-01-15T16:53:23;7.75;;;3.85;;
82248;SDS011;71851;49.092;18.918;2024-01-15T16:56:23;6.45;;;3.92;;
82248;SDS011;71851;49.092;18.918;2024-01-15T16:59:24;6.87;;;3.50;;
82248;SDS011;71851;49.092;18.918;2024-01-15T17:02:24;6.47;;;3.40;;
82248;SDS011;71851;49.092;18.918;2024-01-15T17:05:25;6.90;;;3.40;;
82248;SDS011;71851;49.092;18.918;2024-01-15T17:08:25;4.53;;;3.55;;
82248;SDS011;71851;49.092;18.918;2024-01-15T17:11:25;6.57;;;3.55;;
82248;SDS011;71851;49.092;18.918;2024-01-15T17:14:27;6.93;;;3.75;;
82248;SDS011;71851;49.092;18.918;2024-01-15T17:17:27;11.25;;;5.88;;
82248;SDS011;71851;49.092;18.918;2024-01-15T17:20:28;8.07;;;3.78;;
82248;SDS011;71851;49.092;18.918;2024-01-15T17:23:28;7.97;;;4.07;;
82248;SDS011;71851;49.092;18.918;2024-01-15T17:26:29;9.60;;;4.32;;
82248;SDS011;71851;49.092;18.918;2024-01-15T17:29:29;8.13;;;5.13;;
82248;SDS011;71851;49.092;18.918;2024-01-15T17:32:29;11.75;;;5.75;;
82248;SDS011;71851;49.092;18.918;2024-01-15T17:35:30;6.00;;;3.20;;
82248;SDS011;71851;49.092;18.918;2024-01-15T17:38:31;8.68;;;4.38;;
82248;SDS011;71851;49.092;18.918;2024-01-15T17:41:33;5.53;;;3.50;;
82248;SDS011;71851;49.092;18.918;2024-01-15T17:44:33;9.17;;;4.67;;
82248;SDS011;71851;49.092;18.918;2024-01-15T17:47:33;9.40;;;4.97;;